sensor_id;sensor_type;location;lat;lon;timestamp;P1;durP1;ratioP1;P2;durP2;ratioP2
19388;SDS011;9830;41.876;23.474;2022-08-01T00:01:38;2.27;;;2.17;;
19388;SDS011;9830;41.876;23.474;2022-08-01T00:04:04;1.37;;;1.37;;
19388;SDS011;9830;41.876;23.474;2022-08-01T00:06:30;2.13;;;2.03;;
19388;SDS011;9830;41.876;23.474;2022-08-01T00:08:55;6.37;;;3.03;;
19388;SDS011;9830;41.876;23.474;2022-08-01T00:11:21;2.10;;;1.90;;
19388;SDS011;9830;41.876;23.474;2022-08-01T00:13:47;2.40;;;2.30;;
19388;SDS011;9830;41.876;23.474;2022-08-01T00:16:12;2.50;;;2.30;;
19388;SDS011;9830;41.876;23.474;2022-08-01T00:18:38;4.03;;;2.00;;
19388;SDS011;9830;41.876;23.474;2022-08-01T00:21:04;4.23;;;2.10;;
19388;SDS011;9830;41.876;23.474;2022-08-01T00:23:30;3.13;;;2.90;;
19388;SDS011;9830;41.876;23.474;2022-08-01T00:25:56;1.40;;;1.40;;
19388;SDS011;9830;41.876;23.474;2022-08-01T00:28:22;2.30;;;2.20;;
19388;SDS011;9830;41.876;23.474;2022-08-01T00:30:48;2.00;;;1.90;;
19388;SDS011;9830;41.876;23.474;2022-08-01T00:33:13;2.50;;;2.30;;
19388;SDS011;9830;41.876;23.474;2022-08-01T00:35:39;1.93;;;1.83;;
19388;SDS011;9830;41.876;23.474;2022-08-01T00:38:05;4.20;;;2.87;;
19388;SDS011;9830;41.876;23.474;2022-08-01T00:40:30;2.17;;;2.00;;
19388;SDS011;9830;41.876;23.474;2022-08-01T00:42:56;1.73;;;1.63;;
19388;SDS011;9830;41.876;23.474;2022-08-01T00:45:22;6.87;;;2.27;;
19388;SDS011;9830;41.876;23.474;2022-08-01T00:47:48;4.67;;;2.83;;
19388;SDS011;9830;41.876;23.474;2022-08-01T00:50:14;2.03;;;1.83;;
19388;SDS011;9830;41.876;23.474;2022-08-01T00:52:40;2.17;;;1.73;;
19388;SDS011;9830;41.876;23.474;2022-08-01T00:55:07;1.23;;;1.20;;
19388;SDS011;9830;41.876;23.474;2022-08-01T00:57:34;3.73;;;1.17;;
19388;SDS011;9830;41.876;23.474;2022-08-01T01:00:00;1.73;;;1.63;;
19388;SDS011;9830;41.876;23.474;2022-08-01T01:02:26;5.60;;;1.90;;
19388;SDS011;9830;41.876;23.474;2022-08-01T01:04:51;1.97;;;1.87;;
19388;SDS011;9830;41.876;23.474;2022-08-01T01:09:49;1.97;;;1.87;;
19388;SDS011;9830;41.876;23.474;2022-08-01T01:15:34;1.70;;;1.70;;
19388;SDS011;9830;41.876;23.474;2022-08-01T01:18:07;3.33;;;1.87;;
19388;SDS011;9830;41.876;23.474;2022-08-01T01:20:39;2.57;;;2.37;;
19388;SDS011;9830;41.876;23.474;2022-08-01T01:28:57;1.63;;;1.53;;
19388;SDS011;9830;41.876;23.474;2022-08-01T01:31:31;2.33;;;1.60;;
19388;SDS011;9830;41.876;23.474;2022-08-01T01:34:05;1.80;;;1.70;;
19388;SDS011;9830;41.876;23.474;2022-08-01T01:36:32;2.17;;;2.07;;
19388;SDS011;9830;41.876;23.474;2022-08-01T01:39:00;2.27;;;2.17;;
19388;SDS011;9830;41.876;23.474;2022-08-01T01:41:26;3.97;;;2.57;;
19388;SDS011;9830;41.876;23.474;2022-08-01T01:43:53;1.60;;;1.50;;
19388;SDS011;9830;41.876;23.474;2022-08-01T01:46:21;2.53;;;2.33;;
19388;SDS011;9830;41.876;23.474;2022-08-01T01:48:49;3.27;;;1.43;;
19388;SDS011;9830;41.876;23.474;2022-08-01T01:51:16;2.03;;;1.93;;
19388;SDS011;9830;41.876;23.474;2022-08-01T01:53:45;21.93;;;2.83;;
19388;SDS011;9830;41.876;23.474;2022-08-01T01:56:14;2.53;;;2.33;;
19388;SDS011;9830;41.876;23.474;2022-08-01T01:58:41;2.50;;;2.13;;
19388;SDS011;9830;41.876;23.474;2022-08-01T02:01:08;1.20;;;1.10;;
19388;SDS011;9830;41.876;23.474;2022-08-01T02:03:36;1.60;;;1.53;;
19388;SDS011;9830;41.876;23.474;2022-08-01T02:06:03;2.30;;;2.10;;
19388;SDS011;9830;41.876;23.474;2022-08-01T02:08:29;1.90;;;1.73;;
19388;SDS011;9830;41.876;23.474;2022-08-01T02:10:57;1.87;;;1.73;;
19388;SDS011;9830;41.876;23.474;2022-08-01T02:13:43;1.83;;;1.73;;
19388;SDS011;9830;41.876;23.474;2022-08-01T02:16:16;5.03;;;3.07;;
19388;SDS011;9830;41.876;23.474;2022-08-01T02:18:42;5.83;;;1.90;;
19388;SDS011;9830;41.876;23.474;2022-08-01T02:21:09;2.37;;;2.17;;
19388;SDS011;9830;41.876;23.474;2022-08-01T02:23:37;2.67;;;2.20;;
19388;SDS011;9830;41.876;23.474;2022-08-01T02:26:09;5.80;;;2.13;;
19388;SDS011;9830;41.876;23.474;2022-08-01T02:28:57;1.97;;;1.67;;
19388;SDS011;9830;41.876;23.474;2022-08-01T02:31:27;2.07;;;1.97;;
19388;SDS011;9830;41.876;23.474;2022-08-01T02:33:58;1.73;;;1.07;;
19388;SDS011;9830;41.876;23.474;2022-08-01T02:36:30;2.27;;;1.83;;
19388;SDS011;9830;41.876;23.474;2022-08-01T02:39:04;2.10;;;1.90;;
19388;SDS011;9830;41.876;23.474;2022-08-01T02:41:36;3.53;;;2.13;;
19388;SDS011;9830;41.876;23.474;2022-08-01T02:44:06;4.70;;;3.27;;
19388;SDS011;9830;41.876;23.474;2022-08-01T02:46:44;2.20;;;2.00;;
19388;SDS011;9830;41.876;23.474;2022-08-01T02:49:16;2.03;;;1.93;;
19388;SDS011;9830;41.876;23.474;2022-08-01T02:51:44;2.90;;;1.73;;
19388;SDS011;9830;41.876;23.474;2022-08-01T02:54:12;12.73;;;2.93;;
19388;SDS011;9830;41.876;23.474;2022-08-01T02:56:41;2.80;;;2.60;;
19388;SDS011;9830;41.876;23.474;2022-08-01T02:59:10;2.73;;;2.53;;
19388;SDS011;9830;41.876;23.474;2022-08-01T03:01:39;4.63;;;2.40;;
19388;SDS011;9830;41.876;23.474;2022-08-01T03:04:07;2.63;;;2.43;;
19388;SDS011;9830;41.876;23.474;2022-08-01T03:06:33;1.77;;;1.67;;
19388;SDS011;9830;41.876;23.474;2022-08-01T03:09:01;5.07;;;2.93;;
19388;SDS011;9830;41.876;23.474;2022-08-01T03:11:28;2.90;;;2.10;;
19388;SDS011;9830;41.876;23.474;2022-08-01T03:13:56;2.93;;;2.70;;
19388;SDS011;9830;41.876;23.474;2022-08-01T03:16:26;2.43;;;2.23;;
19388;SDS011;9830;41.876;23.474;2022-08-01T03:18:53;7.50;;;2.27;;
19388;SDS011;9830;41.876;23.474;2022-08-01T03:21:21;2.03;;;1.93;;
19388;SDS011;9830;41.876;23.474;2022-08-01T03:23:52;2.73;;;2.33;;
19388;SDS011;9830;41.876;23.474;2022-08-01T03:26:23;1.70;;;1.60;;
19388;SDS011;9830;41.876;23.474;2022-08-01T03:28:51;3.80;;;2.50;;
19388;SDS011;9830;41.876;23.474;2022-08-01T03:31:21;3.83;;;2.23;;
19388;SDS011;9830;41.876;23.474;2022-08-01T03:33:48;2.77;;;2.17;;
19388;SDS011;9830;41.876;23.474;2022-08-01T03:36:14;0.83;;;0.80;;
19388;SDS011;9830;41.876;23.474;2022-08-01T03:38:43;1.40;;;1.30;;
19388;SDS011;9830;41.876;23.474;2022-08-01T03:41:12;2.20;;;1.90;;
19388;SDS011;9830;41.876;23.474;2022-08-01T03:43:43;3.00;;;2.77;;
19388;SDS011;9830;41.876;23.474;2022-08-01T03:46:20;1.33;;;1.33;;
19388;SDS011;9830;41.876;23.474;2022-08-01T03:48:51;2.77;;;2.10;;
19388;SDS011;9830;41.876;23.474;2022-08-01T03:51:20;3.77;;;2.47;;
19388;SDS011;9830;41.876;23.474;2022-08-01T03:53:47;4.03;;;2.63;;
19388;SDS011;9830;41.876;23.474;2022-08-01T03:56:16;1.47;;;1.37;;
19388;SDS011;9830;41.876;23.474;2022-08-01T03:58:44;7.40;;;3.80;;
19388;SDS011;9830;41.876;23.474;2022-08-01T04:01:11;1.63;;;1.53;;
19388;SDS011;9830;41.876;23.474;2022-08-01T04:03:37;5.00;;;2.00;;
19388;SDS011;9830;41.876;23.474;2022-08-01T04:06:07;2.23;;;2.03;;
19388;SDS011;9830;41.876;23.474;2022-08-01T04:08:38;3.60;;;2.13;;
19388;SDS011;9830;41.876;23.474;2022-08-01T04:11:05;1.83;;;1.73;;
19388;SDS011;9830;41.876;23.474;2022-08-01T04:13:57;2.43;;;1.60;;
19388;SDS011;9830;41.876;23.474;2022-08-01T04:16:23;2.33;;;2.23;;
19388;SDS011;9830;41.876;23.474;2022-08-01T04:18:49;2.57;;;2.40;;
19388;SDS011;9830;41.876;23.474;2022-08-01T04:21:16;2.27;;;2.17;;
19388;SDS011;9830;41.876;23.474;2022-08-01T04:23:46;1.77;;;1.67;;
19388;SDS011;9830;41.876;23.474;2022-08-01T04:26:14;1.53;;;1.47;;
19388;SDS011;9830;41.876;23.474;2022-08-01T04:28:42;2.57;;;2.37;;
19388;SDS011;9830;41.876;23.474;2022-08-01T04:31:09;3.03;;;2.33;;
19388;SDS011;9830;41.876;23.474;2022-08-01T04:33:38;1.57;;;1.47;;
19388;SDS011;9830;41.876;23.474;2022-08-01T04:36:07;2.70;;;2.50;;
19388;SDS011;9830;41.876;23.474;2022-08-01T04:38:35;1.67;;;1.57;;
19388;SDS011;9830;41.876;23.474;2022-08-01T04:41:02;2.23;;;2.13;;
19388;SDS011;9830;41.876;23.474;2022-08-01T04:43:30;2.60;;;1.87;;
19388;SDS011;9830;41.876;23.474;2022-08-01T04:45:56;2.80;;;2.60;;
19388;SDS011;9830;41.876;23.474;2022-08-01T04:48:23;2.03;;;1.83;;
19388;SDS011;9830;41.876;23.474;2022-08-01T04:50:51;1.20;;;1.17;;
19388;SDS011;9830;41.876;23.474;2022-08-01T04:53:19;2.30;;;2.10;;
19388;SDS011;9830;41.876;23.474;2022-08-01T04:55:48;1.67;;;1.60;;
19388;SDS011;9830;41.876;23.474;2022-08-01T04:58:14;1.90;;;1.80;;
19388;SDS011;9830;41.876;23.474;2022-08-01T05:00:41;2.20;;;1.73;;
19388;SDS011;9830;41.876;23.474;2022-08-01T05:03:07;1.17;;;1.10;;
19388;SDS011;9830;41.876;23.474;2022-08-01T05:05:32;2.00;;;1.90;;
19388;SDS011;9830;41.876;23.474;2022-08-01T05:07:58;2.30;;;1.73;;
19388;SDS011;9830;41.876;23.474;2022-08-01T05:10:25;1.43;;;1.33;;
19388;SDS011;9830;41.876;23.474;2022-08-01T05:12:51;1.40;;;1.33;;
19388;SDS011;9830;41.876;23.474;2022-08-01T05:15:17;1.73;;;1.47;;
19388;SDS011;9830;41.876;23.474;2022-08-01T05:17:43;1.00;;;1.00;;
19388;SDS011;9830;41.876;23.474;2022-08-01T05:20:09;1.77;;;1.70;;
19388;SDS011;9830;41.876;23.474;2022-08-01T05:22:36;1.30;;;1.30;;
19388;SDS011;9830;41.876;23.474;2022-08-01T05:25:02;1.33;;;1.27;;
19388;SDS011;9830;41.876;23.474;2022-08-01T05:27:30;0.67;;;0.67;;
19388;SDS011;9830;41.876;23.474;2022-08-01T05:29:56;1.97;;;1.63;;
19388;SDS011;9830;41.876;23.474;2022-08-01T05:32:21;1.17;;;1.07;;
19388;SDS011;9830;41.876;23.474;2022-08-01T05:34:47;1.17;;;1.17;;
19388;SDS011;9830;41.876;23.474;2022-08-01T05:37:13;0.83;;;0.83;;
19388;SDS011;9830;41.876;23.474;2022-08-01T05:39:39;7.93;;;1.07;;
19388;SDS011;9830;41.876;23.474;2022-08-01T05:42:05;3.90;;;2.17;;
19388;SDS011;9830;41.876;23.474;2022-08-01T05:44:31;1.53;;;1.43;;
19388;SDS011;9830;41.876;23.474;2022-08-01T05:46:56;1.80;;;1.70;;
19388;SDS011;9830;41.876;23.474;2022-08-01T05:49:22;0.95;;;0.95;;
19388;SDS011;9830;41.876;23.474;2022-08-01T05:51:48;0.85;;;0.85;;
19388;SDS011;9830;41.876;23.474;2022-08-01T05:54:14;1.17;;;1.08;;
19388;SDS011;9830;41.876;23.474;2022-08-01T05:56:40;3.25;;;1.48;;
19388;SDS011;9830;41.876;23.474;2022-08-01T05:59:05;1.05;;;1.05;;
19388;SDS011;9830;41.876;23.474;2022-08-01T06:01:31;1.80;;;1.70;;
19388;SDS011;9830;41.876;23.474;2022-08-01T06:03:57;0.93;;;0.93;;
19388;SDS011;9830;41.876;23.474;2022-08-01T06:06:23;1.98;;;1.35;;
19388;SDS011;9830;41.876;23.474;2022-08-01T06:08:49;1.20;;;1.17;;
19388;SDS011;9830;41.876;23.474;2022-08-01T06:11:15;0.22;;;0.22;;
19388;SDS011;9830;41.876;23.474;2022-08-01T06:13:41;0.75;;;0.75;;
19388;SDS011;9830;41.876;23.474;2022-08-01T06:16:06;3.00;;;2.13;;
19388;SDS011;9830;41.876;23.474;2022-08-01T06:18:32;1.80;;;1.27;;
19388;SDS011;9830;41.876;23.474;2022-08-01T06:20:58;2.92;;;1.20;;
19388;SDS011;9830;41.876;23.474;2022-08-01T06:23:23;0.98;;;0.90;;
19388;SDS011;9830;41.876;23.474;2022-08-01T06:25:52;1.27;;;1.17;;
19388;SDS011;9830;41.876;23.474;2022-08-01T06:28:19;0.80;;;0.80;;
19388;SDS011;9830;41.876;23.474;2022-08-01T06:30:45;6.22;;;1.90;;
19388;SDS011;9830;41.876;23.474;2022-08-01T06:33:10;0.98;;;0.88;;
19388;SDS011;9830;41.876;23.474;2022-08-01T06:35:36;0.88;;;0.88;;
19388;SDS011;9830;41.876;23.474;2022-08-01T06:38:02;1.20;;;1.20;;
19388;SDS011;9830;41.876;23.474;2022-08-01T06:40:28;1.40;;;1.35;;
19388;SDS011;9830;41.876;23.474;2022-08-01T06:42:54;0.85;;;0.80;;
19388;SDS011;9830;41.876;23.474;2022-08-01T06:45:20;0.82;;;0.82;;
19388;SDS011;9830;41.876;23.474;2022-08-01T06:47:50;1.75;;;1.58;;
19388;SDS011;9830;41.876;23.474;2022-08-01T06:50:16;0.40;;;0.40;;
19388;SDS011;9830;41.876;23.474;2022-08-01T06:52:42;0.43;;;0.43;;
19388;SDS011;9830;41.876;23.474;2022-08-01T06:55:08;0.40;;;0.40;;
19388;SDS011;9830;41.876;23.474;2022-08-01T06:57:34;0.73;;;0.73;;
19388;SDS011;9830;41.876;23.474;2022-08-01T07:00:04;0.50;;;0.50;;
19388;SDS011;9830;41.876;23.474;2022-08-01T07:02:35;0.45;;;0.45;;
19388;SDS011;9830;41.876;23.474;2022-08-01T07:05:02;0.55;;;0.55;;
19388;SDS011;9830;41.876;23.474;2022-08-01T07:07:29;0.38;;;0.38;;
19388;SDS011;9830;41.876;23.474;2022-08-01T07:09:56;2.30;;;1.02;;
19388;SDS011;9830;41.876;23.474;2022-08-01T07:12:22;0.88;;;0.88;;
19388;SDS011;9830;41.876;23.474;2022-08-01T07:14:48;1.08;;;0.90;;
19388;SDS011;9830;41.876;23.474;2022-08-01T07:17:14;5.63;;;0.52;;
19388;SDS011;9830;41.876;23.474;2022-08-01T07:19:39;1.23;;;0.85;;
19388;SDS011;9830;41.876;23.474;2022-08-01T07:22:05;1.00;;;0.88;;
19388;SDS011;9830;41.876;23.474;2022-08-01T07:24:31;0.65;;;0.65;;
19388;SDS011;9830;41.876;23.474;2022-08-01T07:26:56;0.43;;;0.43;;
19388;SDS011;9830;41.876;23.474;2022-08-01T07:29:25;0.20;;;0.20;;
19388;SDS011;9830;41.876;23.474;2022-08-01T07:31:51;0.55;;;0.55;;
19388;SDS011;9830;41.876;23.474;2022-08-01T07:34:18;0.75;;;0.70;;
19388;SDS011;9830;41.876;23.474;2022-08-01T07:36:44;0.65;;;0.65;;
19388;SDS011;9830;41.876;23.474;2022-08-01T07:39:10;0.40;;;0.40;;
19388;SDS011;9830;41.876;23.474;2022-08-01T07:41:36;0.65;;;0.50;;
19388;SDS011;9830;41.876;23.474;2022-08-01T07:44:02;0.45;;;0.45;;
19388;SDS011;9830;41.876;23.474;2022-08-01T07:46:28;0.52;;;0.52;;
19388;SDS011;9830;41.876;23.474;2022-08-01T07:48:55;0.43;;;0.43;;
19388;SDS011;9830;41.876;23.474;2022-08-01T07:51:21;0.32;;;0.32;;
19388;SDS011;9830;41.876;23.474;2022-08-01T07:53:46;4.85;;;1.05;;
19388;SDS011;9830;41.876;23.474;2022-08-01T07:56:12;0.70;;;0.55;;
19388;SDS011;9830;41.876;23.474;2022-08-01T07:58:42;0.40;;;0.40;;
19388;SDS011;9830;41.876;23.474;2022-08-01T08:01:08;0.82;;;0.82;;
19388;SDS011;9830;41.876;23.474;2022-08-01T08:03:34;6.03;;;0.60;;
19388;SDS011;9830;41.876;23.474;2022-08-01T08:06:00;0.43;;;0.43;;
19388;SDS011;9830;41.876;23.474;2022-08-01T08:08:26;0.30;;;0.30;;
19388;SDS011;9830;41.876;23.474;2022-08-01T08:10:52;0.85;;;0.32;;
19388;SDS011;9830;41.876;23.474;2022-08-01T08:13:18;1.08;;;0.75;;
19388;SDS011;9830;41.876;23.474;2022-08-01T08:15:44;0.65;;;0.65;;
19388;SDS011;9830;41.876;23.474;2022-08-01T08:18:10;0.55;;;0.55;;
19388;SDS011;9830;41.876;23.474;2022-08-01T08:20:36;0.32;;;0.32;;
19388;SDS011;9830;41.876;23.474;2022-08-01T08:23:02;0.47;;;0.47;;
19388;SDS011;9830;41.876;23.474;2022-08-01T08:25:48;0.22;;;0.22;;
19388;SDS011;9830;41.876;23.474;2022-08-01T08:28:14;4.72;;;0.82;;
19388;SDS011;9830;41.876;23.474;2022-08-01T08:30:40;12.40;;;1.10;;
19388;SDS011;9830;41.876;23.474;2022-08-01T08:33:06;1.50;;;0.80;;
19388;SDS011;9830;41.876;23.474;2022-08-01T08:35:31;4.25;;;3.00;;
19388;SDS011;9830;41.876;23.474;2022-08-01T08:37:57;0.40;;;0.40;;
19388;SDS011;9830;41.876;23.474;2022-08-01T08:40:23;0.95;;;0.82;;
19388;SDS011;9830;41.876;23.474;2022-08-01T08:42:54;0.65;;;0.65;;
19388;SDS011;9830;41.876;23.474;2022-08-01T08:45:21;0.52;;;0.52;;
19388;SDS011;9830;41.876;23.474;2022-08-01T08:47:47;1.65;;;0.65;;
19388;SDS011;9830;41.876;23.474;2022-08-01T08:50:15;0.40;;;0.40;;
19388;SDS011;9830;41.876;23.474;2022-08-01T08:52:41;1.40;;;0.63;;
19388;SDS011;9830;41.876;23.474;2022-08-01T08:55:10;1.65;;;0.98;;
19388;SDS011;9830;41.876;23.474;2022-08-01T08:57:39;0.43;;;0.43;;
19388;SDS011;9830;41.876;23.474;2022-08-01T09:00:08;0.15;;;0.15;;
19388;SDS011;9830;41.876;23.474;2022-08-01T09:02:35;1.20;;;0.90;;
19388;SDS011;9830;41.876;23.474;2022-08-01T09:05:01;0.20;;;0.20;;
19388;SDS011;9830;41.876;23.474;2022-08-01T09:07:27;4.70;;;1.83;;
19388;SDS011;9830;41.876;23.474;2022-08-01T09:09:53;0.30;;;0.30;;
19388;SDS011;9830;41.876;23.474;2022-08-01T09:12:19;0.50;;;0.50;;
19388;SDS011;9830;41.876;23.474;2022-08-01T09:14:45;0.35;;;0.35;;
19388;SDS011;9830;41.876;23.474;2022-08-01T09:17:12;0.15;;;0.15;;
19388;SDS011;9830;41.876;23.474;2022-08-01T09:19:42;0.17;;;0.17;;
19388;SDS011;9830;41.876;23.474;2022-08-01T09:22:11;0.55;;;0.32;;
19388;SDS011;9830;41.876;23.474;2022-08-01T09:24:39;0.65;;;0.57;;
19388;SDS011;9830;41.876;23.474;2022-08-01T09:27:19;0.88;;;0.88;;
19388;SDS011;9830;41.876;23.474;2022-08-01T09:29:48;0.35;;;0.35;;
19388;SDS011;9830;41.876;23.474;2022-08-01T09:32:17;0.57;;;0.57;;
19388;SDS011;9830;41.876;23.474;2022-08-01T09:34:43;0.30;;;0.30;;
19388;SDS011;9830;41.876;23.474;2022-08-01T09:37:11;0.35;;;0.35;;
19388;SDS011;9830;41.876;23.474;2022-08-01T09:39:39;0.80;;;0.80;;
19388;SDS011;9830;41.876;23.474;2022-08-01T09:42:28;0.88;;;0.63;;
19388;SDS011;9830;41.876;23.474;2022-08-01T09:44:53;0.35;;;0.35;;
19388;SDS011;9830;41.876;23.474;2022-08-01T09:47:19;0.40;;;0.40;;
19388;SDS011;9830;41.876;23.474;2022-08-01T09:49:52;1.05;;;0.47;;
19388;SDS011;9830;41.876;23.474;2022-08-01T09:52:21;0.30;;;0.20;;
19388;SDS011;9830;41.876;23.474;2022-08-01T09:54:58;0.20;;;0.20;;
19388;SDS011;9830;41.876;23.474;2022-08-01T09:57:26;1.85;;;0.93;;
19388;SDS011;9830;41.876;23.474;2022-08-01T09:59:55;0.35;;;0.35;;
19388;SDS011;9830;41.876;23.474;2022-08-01T10:05:03;0.10;;;0.10;;
19388;SDS011;9830;41.876;23.474;2022-08-01T10:07:31;0.93;;;0.38;;
19388;SDS011;9830;41.876;23.474;2022-08-01T10:10:10;0.30;;;0.30;;
19388;SDS011;9830;41.876;23.474;2022-08-01T10:12:41;0.85;;;0.85;;
19388;SDS011;9830;41.876;23.474;2022-08-01T10:15:07;0.63;;;0.63;;
19388;SDS011;9830;41.876;23.474;2022-08-01T10:17:34;0.90;;;0.90;;
19388;SDS011;9830;41.876;23.474;2022-08-01T10:20:03;2.63;;;0.65;;
19388;SDS011;9830;41.876;23.474;2022-08-01T10:22:30;2.05;;;1.48;;
19388;SDS011;9830;41.876;23.474;2022-08-01T10:24:56;2.30;;;0.88;;
19388;SDS011;9830;41.876;23.474;2022-08-01T10:27:26;0.52;;;0.52;;
19388;SDS011;9830;41.876;23.474;2022-08-01T10:29:57;3.72;;;0.70;;
19388;SDS011;9830;41.876;23.474;2022-08-01T10:32:35;1.15;;;1.05;;
19388;SDS011;9830;41.876;23.474;2022-08-01T10:35:01;2.47;;;1.90;;
19388;SDS011;9830;41.876;23.474;2022-08-01T10:37:29;1.10;;;1.00;;
19388;SDS011;9830;41.876;23.474;2022-08-01T10:39:54;3.95;;;1.73;;
19388;SDS011;9830;41.876;23.474;2022-08-01T10:42:21;1.45;;;1.35;;
19388;SDS011;9830;41.876;23.474;2022-08-01T10:44:47;0.50;;;0.50;;
19388;SDS011;9830;41.876;23.474;2022-08-01T10:47:15;2.05;;;1.95;;
19388;SDS011;9830;41.876;23.474;2022-08-01T10:50:04;1.50;;;0.73;;
19388;SDS011;9830;41.876;23.474;2022-08-01T10:52:38;1.85;;;1.38;;
19388;SDS011;9830;41.876;23.474;2022-08-01T10:55:05;0.80;;;0.70;;
19388;SDS011;9830;41.876;23.474;2022-08-01T10:57:44;0.88;;;0.88;;
19388;SDS011;9830;41.876;23.474;2022-08-01T11:00:18;0.60;;;0.60;;
19388;SDS011;9830;41.876;23.474;2022-08-01T11:02:56;0.47;;;0.47;;
19388;SDS011;9830;41.876;23.474;2022-08-01T11:05:28;1.10;;;1.00;;
19388;SDS011;9830;41.876;23.474;2022-08-01T11:07:57;1.20;;;1.13;;
19388;SDS011;9830;41.876;23.474;2022-08-01T11:10:40;2.15;;;0.45;;
19388;SDS011;9830;41.876;23.474;2022-08-01T11:13:10;0.47;;;0.47;;
19388;SDS011;9830;41.876;23.474;2022-08-01T11:15:36;1.08;;;1.08;;
19388;SDS011;9830;41.876;23.474;2022-08-01T11:20:58;0.63;;;0.63;;
19388;SDS011;9830;41.876;23.474;2022-08-01T11:23:26;0.60;;;0.60;;
19388;SDS011;9830;41.876;23.474;2022-08-01T11:28:20;1.52;;;1.42;;
19388;SDS011;9830;41.876;23.474;2022-08-01T11:38:39;0.68;;;0.68;;
19388;SDS011;9830;41.876;23.474;2022-08-01T11:41:11;1.05;;;1.00;;
19388;SDS011;9830;41.876;23.474;2022-08-01T11:46:20;0.35;;;0.35;;
19388;SDS011;9830;41.876;23.474;2022-08-01T11:52:01;0.73;;;0.47;;
19388;SDS011;9830;41.876;23.474;2022-08-01T11:54:38;0.80;;;0.32;;
19388;SDS011;9830;41.876;23.474;2022-08-01T11:57:06;0.80;;;0.80;;
19388;SDS011;9830;41.876;23.474;2022-08-01T11:59:55;0.70;;;0.70;;
19388;SDS011;9830;41.876;23.474;2022-08-01T12:02:25;1.42;;;0.50;;
19388;SDS011;9830;41.876;23.474;2022-08-01T12:05:00;0.32;;;0.32;;
19388;SDS011;9830;41.876;23.474;2022-08-01T12:07:31;0.57;;;0.57;;
19388;SDS011;9830;41.876;23.474;2022-08-01T12:12:33;7.18;;;1.48;;
19388;SDS011;9830;41.876;23.474;2022-08-01T12:15:01;4.28;;;1.27;;
19388;SDS011;9830;41.876;23.474;2022-08-01T12:17:33;0.75;;;0.75;;
19388;SDS011;9830;41.876;23.474;2022-08-01T12:19:59;0.77;;;0.77;;
19388;SDS011;9830;41.876;23.474;2022-08-01T12:22:25;0.30;;;0.30;;
19388;SDS011;9830;41.876;23.474;2022-08-01T12:24:51;0.80;;;0.80;;
19388;SDS011;9830;41.876;23.474;2022-08-01T12:27:30;0.30;;;0.30;;
19388;SDS011;9830;41.876;23.474;2022-08-01T12:29:56;0.30;;;0.30;;
19388;SDS011;9830;41.876;23.474;2022-08-01T12:32:30;1.00;;;0.70;;
19388;SDS011;9830;41.876;23.474;2022-08-01T12:35:01;0.80;;;0.80;;
19388;SDS011;9830;41.876;23.474;2022-08-01T12:37:38;1.08;;;0.98;;
19388;SDS011;9830;41.876;23.474;2022-08-01T12:40:13;0.68;;;0.68;;
19388;SDS011;9830;41.876;23.474;2022-08-01T12:42:41;1.23;;;1.00;;
19388;SDS011;9830;41.876;23.474;2022-08-01T12:45:09;0.45;;;0.45;;
19388;SDS011;9830;41.876;23.474;2022-08-01T12:47:37;0.60;;;0.60;;
19388;SDS011;9830;41.876;23.474;2022-08-01T12:50:08;0.30;;;0.30;;
19388;SDS011;9830;41.876;23.474;2022-08-01T12:52:37;0.75;;;0.75;;
19388;SDS011;9830;41.876;23.474;2022-08-01T12:57:31;0.45;;;0.45;;
19388;SDS011;9830;41.876;23.474;2022-08-01T13:02:33;0.57;;;0.57;;
19388;SDS011;9830;41.876;23.474;2022-08-01T13:04:59;0.45;;;0.45;;
19388;SDS011;9830;41.876;23.474;2022-08-01T13:07:42;1.27;;;0.68;;
19388;SDS011;9830;41.876;23.474;2022-08-01T13:10:13;0.73;;;0.73;;
19388;SDS011;9830;41.876;23.474;2022-08-01T13:12:51;0.20;;;0.20;;
19388;SDS011;9830;41.876;23.474;2022-08-01T13:15:29;0.45;;;0.45;;
19388;SDS011;9830;41.876;23.474;2022-08-01T13:17:57;0.63;;;0.63;;
19388;SDS011;9830;41.876;23.474;2022-08-01T13:20:24;1.17;;;0.88;;
19388;SDS011;9830;41.876;23.474;2022-08-01T13:22:55;0.28;;;0.28;;
19388;SDS011;9830;41.876;23.474;2022-08-01T13:25:34;5.43;;;0.50;;
19388;SDS011;9830;41.876;23.474;2022-08-01T13:28:22;0.38;;;0.38;;
19388;SDS011;9830;41.876;23.474;2022-08-01T13:33:26;0.50;;;0.50;;
19388;SDS011;9830;41.876;23.474;2022-08-01T13:35:53;0.82;;;0.82;;
19388;SDS011;9830;41.876;23.474;2022-08-01T13:38:20;0.95;;;0.73;;
19388;SDS011;9830;41.876;23.474;2022-08-01T13:41:07;0.55;;;0.55;;
19388;SDS011;9830;41.876;23.474;2022-08-01T13:43:33;1.00;;;0.50;;
19388;SDS011;9830;41.876;23.474;2022-08-01T13:46:00;0.90;;;0.85;;
19388;SDS011;9830;41.876;23.474;2022-08-01T13:48:28;1.45;;;1.08;;
19388;SDS011;9830;41.876;23.474;2022-08-01T13:50:55;3.22;;;0.55;;
19388;SDS011;9830;41.876;23.474;2022-08-01T13:53:20;0.38;;;0.38;;
19388;SDS011;9830;41.876;23.474;2022-08-01T13:55:46;0.73;;;0.43;;
19388;SDS011;9830;41.876;23.474;2022-08-01T13:58:12;0.75;;;0.40;;
19388;SDS011;9830;41.876;23.474;2022-08-01T14:00:37;0.43;;;0.43;;
19388;SDS011;9830;41.876;23.474;2022-08-01T14:03:03;0.20;;;0.20;;
19388;SDS011;9830;41.876;23.474;2022-08-01T14:05:29;0.52;;;0.30;;
19388;SDS011;9830;41.876;23.474;2022-08-01T14:07:55;0.55;;;0.55;;
19388;SDS011;9830;41.876;23.474;2022-08-01T14:10:21;1.00;;;0.35;;
19388;SDS011;9830;41.876;23.474;2022-08-01T14:12:47;0.50;;;0.50;;
19388;SDS011;9830;41.876;23.474;2022-08-01T14:15:13;0.38;;;0.38;;
19388;SDS011;9830;41.876;23.474;2022-08-01T14:17:39;0.30;;;0.25;;
19388;SDS011;9830;41.876;23.474;2022-08-01T14:20:04;0.10;;;0.10;;
19388;SDS011;9830;41.876;23.474;2022-08-01T14:22:30;0.63;;;0.63;;
19388;SDS011;9830;41.876;23.474;2022-08-01T14:24:56;2.42;;;0.65;;
19388;SDS011;9830;41.876;23.474;2022-08-01T14:27:22;0.63;;;0.63;;
19388;SDS011;9830;41.876;23.474;2022-08-01T14:29:48;0.20;;;0.20;;
19388;SDS011;9830;41.876;23.474;2022-08-01T14:32:13;0.30;;;0.30;;
19388;SDS011;9830;41.876;23.474;2022-08-01T14:34:39;0.55;;;0.55;;
19388;SDS011;9830;41.876;23.474;2022-08-01T14:37:05;0.40;;;0.40;;
19388;SDS011;9830;41.876;23.474;2022-08-01T14:39:30;0.30;;;0.30;;
19388;SDS011;9830;41.876;23.474;2022-08-01T14:41:56;0.20;;;0.20;;
19388;SDS011;9830;41.876;23.474;2022-08-01T14:44:22;1.10;;;0.32;;
19388;SDS011;9830;41.876;23.474;2022-08-01T14:46:47;0.43;;;0.40;;
19388;SDS011;9830;41.876;23.474;2022-08-01T14:49:14;0.40;;;0.40;;
19388;SDS011;9830;41.876;23.474;2022-08-01T14:51:40;0.30;;;0.30;;
19388;SDS011;9830;41.876;23.474;2022-08-01T14:54:06;0.63;;;0.63;;
19388;SDS011;9830;41.876;23.474;2022-08-01T14:56:31;0.22;;;0.22;;
19388;SDS011;9830;41.876;23.474;2022-08-01T14:58:57;1.75;;;0.98;;
19388;SDS011;9830;41.876;23.474;2022-08-01T15:01:23;0.50;;;0.50;;
19388;SDS011;9830;41.876;23.474;2022-08-01T15:03:49;0.15;;;0.15;;
19388;SDS011;9830;41.876;23.474;2022-08-01T15:06:16;0.22;;;0.22;;
19388;SDS011;9830;41.876;23.474;2022-08-01T15:08:42;0.47;;;0.47;;
19388;SDS011;9830;41.876;23.474;2022-08-01T15:11:08;1.83;;;1.27;;
19388;SDS011;9830;41.876;23.474;2022-08-01T15:13:35;0.38;;;0.38;;
19388;SDS011;9830;41.876;23.474;2022-08-01T15:16:01;0.10;;;0.10;;
19388;SDS011;9830;41.876;23.474;2022-08-01T15:18:27;1.17;;;0.73;;
19388;SDS011;9830;41.876;23.474;2022-08-01T15:20:53;0.55;;;0.55;;
19388;SDS011;9830;41.876;23.474;2022-08-01T15:23:19;0.75;;;0.75;;
19388;SDS011;9830;41.876;23.474;2022-08-01T15:25:46;1.67;;;0.68;;
19388;SDS011;9830;41.876;23.474;2022-08-01T15:28:12;0.73;;;0.73;;
19388;SDS011;9830;41.876;23.474;2022-08-01T15:30:38;0.93;;;0.93;;
19388;SDS011;9830;41.876;23.474;2022-08-01T15:33:03;0.43;;;0.43;;
19388;SDS011;9830;41.876;23.474;2022-08-01T15:35:30;0.70;;;0.70;;
19388;SDS011;9830;41.876;23.474;2022-08-01T15:37:56;0.45;;;0.45;;